TimePST,TemperatureF,Dew PointF,Humidity,Sea Level PressureIn,VisibilityMPH,Wind Direction,Wind SpeedMPH,Gust SpeedMPH,PrecipitationIn,Events,Conditions,WindDirDegrees,DateUTC
12:53 AM,57.9,51.1,78,30.05,10.0,Calm,Calm,-,N/A,,Overcast,0,2013-11-19 08:53:00
1:53 AM,57.9,51.1,78,30.03,10.0,Calm,Calm,-,N/A,,Overcast,0,2013-11-19 09:53:00
2:53 AM,57.9,51.1,78,30.01,10.0,Calm,Calm,-,N/A,,Overcast,0,2013-11-19 10:53:00
3:30 AM,57.2,51.8,82,30.04,10.0,Calm,Calm,-,N/A,,Overcast,0,2013-11-19 11:30:00
3:53 AM,57.0,51.1,81,30.01,10.0,Calm,Calm,-,N/A,,Overcast,0,2013-11-19 11:53:00
4:53 AM,57.0,51.1,81,30.02,10.0,Calm,Calm,-,N/A,,Overcast,0,2013-11-19 12:53:00
5:53 AM,57.0,52.0,83,30.01,9.0,Calm,Calm,-,N/A,,Overcast,0,2013-11-19 13:53:00
6:06 AM,57.2,51.8,82,30.05,9.0,Calm,Calm,-,N/A,,Overcast,0,2013-11-19 14:06:00
6:53 AM,57.0,51.1,81,30.02,7.0,Calm,Calm,-,N/A,,Overcast,0,2013-11-19 14:53:00
7:53 AM,57.0,51.1,81,30.04,9.0,West,4.6,-,N/A,,Overcast,260,2013-11-19 15:53:00
8:53 AM,59.0,50.0,72,30.04,10.0,West,5.8,-,N/A,,Overcast,270,2013-11-19 16:53:00
9:53 AM,60.1,51.1,72,30.04,9.0,West,6.9,-,N/A,,Overcast,270,2013-11-19 17:53:00
10:53 AM,61.0,50.0,67,30.01,10.0,West,4.6,-,N/A,,Clear,260,2013-11-19 18:53:00
11:53 AM,63.0,48.0,58,29.99,10.0,Variable,4.6,-,N/A,,Overcast,0,2013-11-19 19:53:00
12:53 PM,63.0,46.9,56,29.96,10.0,Calm,Calm,-,N/A,,Partly Cloudy,0,2013-11-19 20:53:00
1:53 PM,64.0,46.9,54,29.94,10.0,Variable,3.5,-,N/A,,Overcast,0,2013-11-19 21:53:00
2:53 PM,64.9,46.9,52,29.93,10.0,West,8.1,-,N/A,,Mostly Cloudy,260,2013-11-19 22:53:00
3:53 PM,63.0,48.9,60,29.94,10.0,West,4.6,-,N/A,,Mostly Cloudy,270,2013-11-19 23:53:00
4:53 PM,62.1,48.9,62,29.94,10.0,Variable,3.5,-,N/A,,Scattered Clouds,0,2013-11-20 00:53:00
5:53 PM,61.0,50.0,67,29.94,10.0,West,6.9,-,N/A,,Mostly Cloudy,270,2013-11-20 01:53:00
6:53 PM,60.1,50.0,69,29.94,10.0,West,6.9,-,N/A,,Overcast,280,2013-11-20 02:53:00
7:53 PM,59.0,50.0,72,29.94,10.0,West,3.5,-,N/A,,Clear,270,2013-11-20 03:53:00
8:53 PM,57.9,51.1,78,29.96,10.0,West,5.8,-,N/A,,Overcast,270,2013-11-20 04:53:00
9:53 PM,57.9,51.1,78,29.96,10.0,Calm,Calm,-,N/A,,Overcast,0,2013-11-20 05:53:00
10:53 PM,57.0,50.0,77,29.96,10.0,Calm,Calm,-,N/A,,Overcast,0,2013-11-20 06:53:00
11:53 PM,57.0,51.1,81,29.95,10.0,Calm,Calm,-,N/A,,Overcast,0,2013-11-20 07:53:00